createdAt,value
2023-10-27T00:01:06.878Z,9.32
2023-10-27T00:03:51.913Z,9.28
2023-10-27T00:06:37.270Z,9.28
2023-10-27T00:09:22.128Z,9.30
2023-10-27T00:12:07.945Z,9.26
2023-10-27T00:14:52.831Z,9.28
2023-10-27T00:17:37.747Z,9.38
2023-10-27T00:20:22.596Z,9.29
2023-10-27T00:23:07.539Z,9.29
2023-10-27T00:25:52.906Z,9.25
2023-10-27T00:28:37.988Z,9.30
2023-10-27T00:31:23.410Z,9.27
2023-10-27T00:34:08.269Z,9.34
2023-10-27T00:36:53.266Z,9.44
2023-10-27T00:39:39.889Z,9.40
2023-10-27T00:42:24.948Z,9.40
2023-10-27T00:45:10.142Z,9.52
2023-10-27T00:47:55.610Z,9.46
2023-10-27T00:50:40.973Z,9.51
2023-10-27T00:53:26.256Z,9.54
2023-10-27T00:56:11.495Z,9.54
2023-10-27T00:58:58.482Z,9.46
2023-10-27T01:01:43.902Z,9.52
2023-10-27T01:04:29.384Z,9.61
2023-10-27T01:07:14.556Z,9.66
2023-10-27T01:09:59.706Z,9.56
2023-10-27T01:12:48.128Z,9.51
2023-10-27T01:15:33.225Z,9.62
2023-10-27T01:18:18.273Z,9.55
2023-10-27T01:21:04.921Z,9.76
2023-10-27T01:23:49.855Z,9.74
2023-10-27T01:26:34.929Z,9.82
2023-10-27T01:29:21.535Z,9.81
2023-10-27T01:32:06.737Z,9.93
2023-10-27T01:34:51.841Z,9.95
2023-10-27T01:37:36.807Z,9.94
2023-10-27T01:40:21.762Z,9.86
2023-10-27T01:43:06.936Z,9.92
2023-10-27T01:45:51.792Z,9.93
2023-10-27T01:48:37.255Z,9.88
2023-10-27T01:51:22.477Z,9.84
2023-10-27T01:54:07.414Z,9.91
2023-10-27T01:56:52.451Z,9.85
2023-10-27T01:59:37.397Z,9.82
2023-10-27T02:02:22.906Z,9.85
2023-10-27T02:05:09.123Z,9.79
2023-10-27T02:07:54.133Z,9.86
2023-10-27T02:10:39.083Z,9.68
2023-10-27T02:13:24.266Z,9.85
2023-10-27T02:16:09.302Z,9.85
2023-10-27T02:18:54.187Z,9.91
2023-10-27T02:21:39.148Z,9.89
2023-10-27T02:24:24.186Z,9.89
2023-10-27T02:27:09.100Z,9.92
2023-10-27T02:29:53.970Z,9.90
2023-10-27T02:32:39.189Z,9.84
2023-10-27T02:35:26.477Z,9.88
2023-10-27T02:38:11.536Z,9.88
2023-10-27T02:40:56.847Z,9.96
2023-10-27T02:43:41.788Z,9.95
2023-10-27T02:46:26.817Z,10.07
2023-10-27T02:49:11.725Z,10.02
2023-10-27T02:51:56.767Z,10.10
2023-10-27T02:54:41.677Z,10.09
2023-10-27T02:57:26.682Z,10.05
2023-10-27T03:00:12.085Z,10.07
2023-10-27T03:02:57.401Z,10.05
2023-10-27T03:05:42.267Z,10.13
2023-10-27T03:08:27.294Z,9.97
2023-10-27T03:11:12.542Z,10.22
2023-10-27T03:13:57.293Z,10.21
2023-10-27T03:16:42.258Z,10.23
2023-10-27T03:19:27.267Z,10.16
2023-10-27T03:22:13.283Z,10.18
2023-10-27T03:24:58.056Z,10.13
2023-10-27T03:27:43.969Z,10.24
2023-10-27T03:30:29.126Z,10.24
2023-10-27T03:33:14.539Z,10.25
2023-10-27T03:35:59.778Z,10.31
2023-10-27T03:38:44.694Z,10.32
2023-10-27T03:41:30.306Z,10.31
2023-10-27T03:44:15.204Z,10.28
2023-10-27T03:47:00.204Z,10.27
2023-10-27T03:49:45.257Z,10.21
2023-10-27T03:52:30.658Z,10.24
2023-10-27T03:55:15.875Z,10.24
2023-10-27T03:58:18.023Z,10.17
2023-10-27T04:01:05.223Z,10.19
2023-10-27T04:03:50.242Z,10.11
2023-10-27T04:06:35.659Z,10.14
2023-10-27T04:09:22.354Z,10.21
2023-10-27T04:12:08.279Z,10.17
2023-10-27T04:14:53.210Z,10.25
2023-10-27T04:17:38.370Z,10.24
2023-10-27T04:20:23.453Z,10.18
2023-10-27T04:23:10.154Z,10.19
2023-10-27T04:25:55.470Z,10.21
2023-10-27T04:28:40.751Z,10.17
2023-10-27T04:31:26.941Z,10.22
2023-10-27T04:34:12.818Z,10.20
2023-10-27T04:36:57.911Z,10.28
2023-10-27T04:39:42.952Z,10.29
2023-10-27T04:42:28.626Z,10.38
2023-10-27T04:45:13.510Z,10.51
2023-10-27T04:47:58.485Z,10.37
2023-10-27T04:50:43.426Z,10.31
2023-10-27T04:53:28.678Z,10.49
2023-10-27T04:56:13.622Z,10.45
2023-10-27T04:58:58.746Z,10.56
2023-10-27T05:01:43.863Z,10.46
2023-10-27T05:04:28.957Z,10.49
2023-10-27T05:07:13.839Z,10.48
2023-10-27T05:09:58.889Z,10.52
2023-10-27T05:12:44.162Z,10.59
2023-10-27T05:15:29.393Z,10.58
2023-10-27T05:18:17.024Z,10.53
2023-10-27T05:21:02.440Z,10.46
2023-10-27T05:23:48.768Z,10.47
2023-10-27T05:26:33.910Z,10.55
2023-10-27T05:29:18.800Z,10.61
2023-10-27T05:32:04.256Z,10.58
2023-10-27T05:34:49.672Z,10.64
2023-10-27T05:37:34.473Z,10.60
2023-10-27T05:40:19.527Z,10.69
2023-10-27T05:43:04.817Z,10.66
2023-10-27T05:45:49.710Z,10.72
2023-10-27T05:48:34.851Z,10.64
2023-10-27T05:51:19.899Z,10.70
2023-10-27T05:54:06.204Z,10.85
2023-10-27T05:56:52.365Z,10.87
2023-10-27T05:59:37.378Z,10.74
2023-10-27T06:02:22.402Z,10.79
2023-10-27T06:05:07.637Z,10.86
2023-10-27T06:07:52.922Z,10.86
2023-10-27T06:10:38.898Z,10.86
2023-10-27T06:13:23.874Z,10.89
2023-10-27T06:16:09.142Z,10.97
2023-10-27T06:18:55.355Z,10.90
2023-10-27T06:21:40.480Z,10.74
2023-10-27T06:24:25.439Z,10.85
2023-10-27T06:27:10.573Z,10.95
2023-10-27T06:29:57.595Z,10.98
2023-10-27T06:32:42.741Z,10.98
2023-10-27T06:35:27.796Z,10.98
2023-10-27T06:38:12.656Z,10.93
2023-10-27T06:40:57.930Z,10.98
2023-10-27T06:43:43.489Z,10.89
2023-10-27T06:46:28.743Z,10.87
2023-10-27T06:49:14.504Z,10.98
2023-10-27T06:51:59.530Z,10.93
2023-10-27T06:54:44.916Z,11.07
2023-10-27T06:57:31.225Z,11.02
2023-10-27T07:00:16.770Z,10.90
2023-10-27T07:03:02.441Z,10.87
2023-10-27T07:05:47.493Z,10.84
2023-10-27T07:08:32.533Z,10.86
2023-10-27T07:11:17.529Z,11.09
2023-10-27T07:14:03.234Z,11.11
2023-10-27T07:16:52.973Z,11.07
2023-10-27T07:19:37.962Z,11.22
2023-10-27T07:22:23.197Z,11.08
2023-10-27T07:25:08.688Z,11.06
2023-10-27T07:27:56.453Z,11.20
2023-10-27T07:30:41.675Z,11.11
2023-10-27T07:33:26.811Z,11.02
2023-10-27T07:36:11.658Z,11.09
2023-10-27T07:38:58.097Z,11.09
2023-10-27T07:41:43.275Z,11.24
2023-10-27T07:44:28.276Z,11.17
2023-10-27T07:47:13.036Z,11.30
2023-10-27T07:49:57.837Z,11.31
2023-10-27T07:52:43.249Z,11.34
2023-10-27T07:55:28.396Z,11.35
2023-10-27T07:58:13.477Z,11.38
2023-10-27T08:00:58.533Z,11.46
2023-10-27T08:03:43.856Z,11.39
2023-10-27T08:06:29.182Z,11.58
2023-10-27T08:09:14.751Z,11.61
2023-10-27T08:11:59.822Z,11.59
2023-10-27T08:14:45.484Z,11.52
2023-10-27T08:17:30.843Z,11.53
2023-10-27T08:20:16.472Z,11.73
2023-10-27T08:23:01.515Z,11.72
2023-10-27T08:25:53.106Z,11.60
2023-10-27T08:28:38.298Z,11.59
2023-10-27T08:31:23.795Z,11.53
2023-10-27T08:34:12.215Z,11.54
2023-10-27T08:36:57.537Z,11.42
2023-10-27T08:39:43.468Z,11.50
2023-10-27T08:42:34.491Z,11.62
2023-10-27T08:45:22.025Z,11.56
2023-10-27T08:48:07.310Z,11.52
2023-10-27T08:50:52.995Z,11.62
2023-10-27T08:53:41.625Z,11.66
2023-10-27T08:56:26.753Z,11.61
2023-10-27T08:59:12.024Z,11.82
2023-10-27T09:01:56.893Z,11.94
2023-10-27T09:04:45.110Z,11.88
2023-10-27T09:07:34.221Z,12.13
2023-10-27T09:10:19.950Z,12.21
2023-10-27T09:13:09.383Z,12.20
2023-10-27T09:15:54.677Z,12.08
2023-10-27T09:18:39.903Z,12.03
2023-10-27T09:21:33.563Z,12.25
2023-10-27T09:24:27.151Z,12.35
2023-10-27T09:27:14.109Z,12.24
2023-10-27T09:29:59.368Z,12.22
2023-10-27T09:32:44.282Z,12.09
2023-10-27T09:35:29.676Z,12.31
2023-10-27T09:38:15.579Z,12.31
2023-10-27T09:41:07.578Z,12.41
2023-10-27T09:43:53.516Z,12.28
2023-10-27T09:46:40.717Z,12.41
2023-10-27T09:49:34.909Z,12.21
2023-10-27T09:52:21.800Z,12.41
2023-10-27T09:55:15.257Z,12.59
2023-10-27T09:58:02.350Z,12.47
2023-10-27T10:00:49.766Z,12.35
2023-10-27T10:03:35.045Z,12.37
2023-10-27T10:06:25.785Z,12.98
2023-10-27T10:09:15.619Z,13.13
2023-10-27T10:12:00.988Z,13.21
2023-10-27T10:14:49.571Z,13.27
2023-10-27T10:17:41.814Z,13.30
2023-10-27T10:20:42.563Z,13.17
2023-10-27T10:23:41.638Z,13.30
2023-10-27T10:27:05.612Z,13.40
2023-10-27T10:29:50.679Z,13.36
2023-10-27T10:32:37.616Z,13.33
2023-10-27T10:35:24.988Z,13.39
2023-10-27T10:38:25.057Z,13.16
2023-10-27T10:41:10.439Z,13.18
2023-10-27T10:44:18.081Z,13.28
2023-10-27T10:47:16.987Z,13.46
2023-10-27T10:50:01.868Z,13.76
2023-10-27T10:52:47.271Z,14.19
2023-10-27T10:55:32.649Z,14.29
2023-10-27T10:58:25.096Z,14.12
2023-10-27T11:01:18.023Z,14.12
2023-10-27T11:04:03.351Z,13.61
2023-10-27T11:06:48.350Z,13.85
2023-10-27T11:09:33.501Z,13.73
2023-10-27T11:12:27.243Z,13.52
2023-10-27T11:15:41.652Z,13.80
2023-10-27T11:18:32.582Z,13.57
2023-10-27T11:21:21.908Z,13.52
2023-10-27T11:24:08.813Z,13.55
2023-10-27T11:26:53.980Z,13.65
2023-10-27T11:29:39.017Z,13.85
2023-10-27T11:32:24.907Z,13.63
2023-10-27T11:35:09.822Z,13.57
2023-10-27T11:38:02.804Z,14.29
2023-10-27T11:40:47.977Z,14.57
2023-10-27T11:43:33.305Z,14.69
2023-10-27T11:46:19.573Z,14.46
2023-10-27T11:49:04.744Z,14.77
2023-10-27T11:51:52.971Z,14.64
2023-10-27T11:54:38.023Z,14.36
2023-10-27T11:57:22.969Z,14.19
2023-10-27T12:00:09.900Z,13.96
2023-10-27T12:02:55.139Z,14.00
2023-10-27T12:05:40.448Z,13.96
2023-10-27T12:08:25.842Z,13.87
2023-10-27T12:11:11.445Z,13.71
2023-10-27T12:13:57.303Z,13.54
2023-10-27T12:16:43.229Z,13.52
2023-10-27T12:19:28.446Z,13.52
2023-10-27T12:22:13.670Z,13.30
2023-10-27T12:24:59.034Z,13.11
2023-10-27T12:27:44.292Z,13.09
2023-10-27T12:30:29.406Z,13.08
2023-10-27T12:33:14.312Z,13.22
2023-10-27T12:36:06.666Z,13.33
2023-10-27T12:38:52.066Z,13.33
2023-10-27T12:41:37.936Z,13.61
2023-10-27T12:44:24.339Z,13.46
2023-10-27T12:47:09.738Z,13.63
2023-10-27T12:49:55.589Z,13.59
2023-10-27T12:52:41.691Z,13.71
2023-10-27T12:55:31.901Z,13.77
2023-10-27T12:58:18.746Z,13.86
2023-10-27T13:01:05.083Z,13.78
2023-10-27T13:03:50.844Z,13.80
2023-10-27T13:06:37.524Z,13.79
2023-10-27T13:09:23.139Z,13.68
2023-10-27T13:12:09.350Z,13.78
2023-10-27T13:14:55.860Z,13.78
2023-10-27T13:17:41.472Z,13.32
2023-10-27T13:20:26.679Z,13.33
2023-10-27T13:23:11.626Z,13.52
2023-10-27T13:26:03.657Z,13.13
2023-10-27T13:28:49.010Z,13.39
2023-10-27T13:31:34.303Z,13.55
2023-10-27T13:34:20.594Z,13.52
2023-10-27T13:37:06.125Z,13.46
2023-10-27T13:39:51.496Z,13.49
2023-10-27T13:42:37.462Z,13.22
2023-10-27T13:45:22.622Z,13.17
2023-10-27T13:48:10.263Z,13.33
2023-10-27T13:50:56.501Z,13.29
2023-10-27T13:53:42.379Z,13.34
2023-10-27T13:56:28.283Z,13.37
2023-10-27T13:59:13.285Z,13.22
2023-10-27T14:01:58.376Z,13.66
2023-10-27T14:04:43.641Z,13.43
2023-10-27T14:07:29.109Z,13.38
2023-10-27T14:10:14.341Z,13.48
2023-10-27T14:12:59.406Z,13.41
2023-10-27T14:15:44.524Z,13.36
2023-10-27T14:18:30.263Z,13.42
2023-10-27T14:21:15.401Z,13.70
2023-10-27T14:24:00.558Z,13.53
2023-10-27T14:26:47.342Z,13.54
2023-10-27T14:29:32.869Z,13.66
2023-10-27T14:32:18.094Z,13.51
2023-10-27T14:35:04.183Z,13.52
2023-10-27T14:37:52.833Z,13.48
2023-10-27T14:40:38.072Z,13.44
2023-10-27T14:43:23.243Z,13.33
2023-10-27T14:46:13.089Z,13.37
2023-10-27T14:48:58.353Z,13.60
2023-10-27T14:51:43.386Z,13.56
2023-10-27T14:54:28.755Z,13.51
2023-10-27T14:57:14.032Z,13.59
2023-10-27T14:59:58.996Z,13.52
2023-10-27T15:02:44.448Z,13.38
2023-10-27T15:05:29.195Z,13.40
2023-10-27T15:08:14.128Z,13.35
2023-10-27T15:10:59.473Z,13.44
2023-10-27T15:13:44.526Z,13.45
2023-10-27T15:16:33.472Z,13.40
2023-10-27T15:19:18.304Z,13.27
2023-10-27T15:22:03.453Z,13.48
2023-10-27T15:24:48.406Z,13.49
2023-10-27T15:27:33.367Z,13.38
2023-10-27T15:30:18.679Z,13.46
2023-10-27T15:33:04.152Z,13.44
2023-10-27T15:35:49.157Z,13.29
2023-10-27T15:38:34.990Z,13.59
2023-10-27T15:41:39.697Z,13.58
2023-10-27T15:44:24.678Z,13.60
2023-10-27T15:47:10.964Z,13.38
2023-10-27T15:49:56.195Z,13.35
2023-10-27T15:52:41.510Z,13.42
2023-10-27T15:55:26.564Z,13.47
2023-10-27T15:58:11.435Z,13.41
2023-10-27T16:00:57.619Z,13.37
2023-10-27T16:03:43.016Z,13.34
2023-10-27T16:06:28.509Z,13.43
2023-10-27T16:09:35.380Z,13.10
2023-10-27T16:12:18.243Z,13.09
2023-10-27T16:15:03.887Z,12.96
2023-10-27T16:17:49.222Z,13.03
2023-10-27T16:20:38.187Z,12.73
2023-10-27T16:23:23.453Z,12.47
2023-10-27T16:26:08.437Z,12.29
2023-10-27T16:28:53.829Z,12.33
2023-10-27T16:31:38.717Z,12.28
2023-10-27T16:34:24.055Z,12.25
2023-10-27T16:37:09.205Z,12.16
2023-10-27T16:39:54.472Z,12.15
2023-10-27T16:42:40.277Z,12.13
2023-10-27T16:45:26.463Z,12.13
2023-10-27T16:48:11.761Z,12.12
2023-10-27T16:51:27.211Z,12.16
2023-10-27T16:54:14.201Z,12.07
2023-10-27T16:56:59.258Z,12.07
2023-10-27T16:59:48.450Z,12.06
2023-10-27T17:02:34.188Z,12.07
2023-10-27T17:05:19.553Z,12.00
2023-10-27T17:08:05.034Z,11.88
2023-10-27T17:10:57.677Z,11.74
2023-10-27T17:13:42.633Z,11.89
2023-10-27T17:16:27.497Z,11.83
2023-10-27T17:19:12.533Z,11.76
2023-10-27T17:21:59.548Z,11.71
2023-10-27T17:24:44.621Z,11.47
2023-10-27T17:27:29.892Z,11.24
2023-10-27T17:30:16.020Z,11.17
2023-10-27T17:33:01.052Z,11.13
2023-10-27T17:35:45.929Z,10.96
2023-10-27T17:38:32.837Z,10.97
2023-10-27T17:41:18.067Z,11.25
2023-10-27T17:44:08.454Z,11.26
2023-10-27T17:46:54.210Z,11.17
2023-10-27T17:49:39.626Z,11.36
2023-10-27T17:52:24.931Z,11.42
2023-10-27T17:55:10.243Z,11.43
2023-10-27T17:57:55.495Z,11.34
2023-10-27T18:00:40.463Z,11.43
2023-10-27T18:03:25.887Z,11.43
2023-10-27T18:06:16.100Z,11.37
2023-10-27T18:09:01.224Z,11.14
2023-10-27T18:11:46.638Z,11.17
2023-10-27T18:14:31.677Z,11.18
2023-10-27T18:17:17.216Z,11.18
2023-10-27T18:20:06.387Z,11.21
2023-10-27T18:22:51.845Z,11.16
2023-10-27T18:25:37.574Z,11.08
2023-10-27T18:28:22.493Z,10.92
2023-10-27T18:31:08.518Z,10.69
2023-10-27T18:33:53.735Z,10.73
2023-10-27T18:36:39.605Z,10.70
2023-10-27T18:39:24.953Z,10.45
2023-10-27T18:42:10.606Z,10.49
2023-10-27T18:44:55.582Z,10.65
2023-10-27T18:47:40.833Z,10.47
2023-10-27T18:50:26.811Z,10.58
2023-10-27T18:53:11.937Z,10.50
2023-10-27T18:56:03.002Z,10.40
2023-10-27T18:58:48.045Z,10.21
2023-10-27T19:01:33.330Z,10.15
2023-10-27T19:04:18.922Z,10.13
2023-10-27T19:07:06.512Z,10.10
2023-10-27T19:09:54.583Z,10.06
2023-10-27T19:12:41.904Z,10.02
2023-10-27T19:15:28.007Z,9.84
2023-10-27T19:18:13.438Z,9.84
2023-10-27T19:21:11.672Z,9.64
2023-10-27T19:23:57.740Z,9.61
2023-10-27T19:26:42.869Z,9.64
2023-10-27T19:29:27.800Z,9.61
2023-10-27T19:32:13.387Z,9.68
2023-10-27T19:34:58.510Z,9.72
2023-10-27T19:37:44.170Z,9.56
2023-10-27T19:40:29.091Z,9.47
2023-10-27T19:43:14.245Z,9.62
2023-10-27T19:45:59.498Z,9.72
2023-10-27T19:48:45.627Z,9.61
2023-10-27T19:51:30.831Z,9.68
2023-10-27T19:54:18.125Z,9.70
2023-10-27T19:57:03.381Z,9.68
2023-10-27T19:59:48.756Z,9.63
2023-10-27T20:02:34.658Z,9.71
2023-10-27T20:05:19.950Z,9.73
2023-10-27T20:08:06.420Z,9.72
2023-10-27T20:10:51.468Z,9.64
2023-10-27T20:13:44.827Z,9.51
2023-10-27T20:16:31.173Z,9.54
2023-10-27T20:19:16.084Z,9.52
2023-10-27T20:22:01.744Z,9.50
2023-10-27T20:24:46.783Z,9.51
2023-10-27T20:27:32.666Z,9.38
2023-10-27T20:30:18.611Z,9.19
2023-10-27T20:33:03.654Z,9.28
2023-10-27T20:35:48.725Z,9.16
2023-10-27T20:38:33.891Z,9.17
2023-10-27T20:41:18.878Z,9.20
2023-10-27T20:44:04.412Z,9.24
2023-10-27T20:46:49.599Z,9.22
2023-10-27T20:49:34.844Z,9.28
2023-10-27T20:52:20.026Z,9.21
2023-10-27T20:55:06.287Z,9.34
2023-10-27T20:57:51.565Z,9.44
2023-10-27T21:00:36.729Z,9.52
2023-10-27T21:03:21.921Z,9.63
2023-10-27T21:06:08.475Z,9.58
2023-10-27T21:08:53.522Z,9.34
2023-10-27T21:11:38.784Z,9.36
2023-10-27T21:14:24.567Z,9.32
2023-10-27T21:17:09.791Z,9.26
2023-10-27T21:19:55.450Z,9.22
2023-10-27T21:22:43.564Z,9.30
2023-10-27T21:25:31.256Z,9.39
2023-10-27T21:28:16.461Z,9.33
2023-10-27T21:31:01.942Z,9.29
2023-10-27T21:33:47.253Z,9.37
2023-10-27T21:36:32.129Z,9.43
2023-10-27T21:39:17.140Z,9.37
2023-10-27T21:42:02.345Z,9.37
2023-10-27T21:44:48.092Z,9.33
2023-10-27T21:47:33.641Z,9.32
2023-10-27T21:50:18.868Z,9.20
2023-10-27T21:53:05.942Z,9.24
2023-10-27T21:55:51.134Z,9.37
2023-10-27T21:58:36.466Z,9.28
2023-10-27T22:01:21.911Z,9.35
2023-10-27T22:04:17.429Z,9.26
2023-10-27T22:07:05.260Z,9.33
2023-10-27T22:09:50.193Z,9.33
2023-10-27T22:12:35.529Z,9.38
2023-10-27T22:15:20.886Z,9.40
2023-10-27T22:18:06.660Z,9.38
2023-10-27T22:20:52.912Z,9.41
2023-10-27T22:23:38.998Z,9.34
2023-10-27T22:26:25.956Z,9.36
2023-10-27T22:29:11.239Z,9.11
2023-10-27T22:31:56.159Z,9.09
2023-10-27T22:34:41.219Z,9.29
2023-10-27T22:37:26.276Z,9.27
2023-10-27T22:40:11.899Z,9.41
2023-10-27T22:42:57.534Z,9.55
2023-10-27T22:45:43.381Z,9.63
2023-10-27T22:48:28.302Z,9.65
2023-10-27T22:51:13.860Z,9.70
2023-10-27T22:53:58.925Z,9.72
2023-10-27T22:56:43.773Z,9.78
2023-10-27T22:59:28.884Z,9.76
2023-10-27T23:02:14.064Z,9.85
2023-10-27T23:04:59.858Z,9.79
2023-10-27T23:07:44.839Z,9.92
2023-10-27T23:10:29.853Z,9.94
2023-10-27T23:13:15.114Z,9.93
2023-10-27T23:16:03.712Z,9.97
2023-10-27T23:18:48.987Z,9.96
2023-10-27T23:21:33.928Z,9.88
2023-10-27T23:24:19.466Z,10.03
2023-10-27T23:27:06.499Z,10.04
2023-10-27T23:29:51.826Z,10.05
2023-10-27T23:32:37.045Z,10.01
2023-10-27T23:35:24.091Z,10.01
2023-10-27T23:38:10.548Z,10.09
2023-10-27T23:40:56.674Z,10.11
2023-10-27T23:43:42.295Z,10.12
2023-10-27T23:46:28.391Z,10.10
2023-10-27T23:49:13.803Z,10.12
2023-10-27T23:51:58.581Z,10.24
2023-10-27T23:54:43.522Z,10.32
2023-10-27T23:57:28.329Z,10.26
